sensor_id;sensor_type;location;lat;lon;timestamp;P1;durP1;ratioP1;P2;durP2;ratioP2
6852;SDS011;3465;42.144;24.722;2023-07-31T00:00:57;8.65;;;2.42;;
6852;SDS011;3465;42.144;24.722;2023-07-31T00:03:23;3.20;;;2.00;;
6852;SDS011;3465;42.144;24.722;2023-07-31T00:05:48;2.40;;;1.80;;
6852;SDS011;3465;42.144;24.722;2023-07-31T00:08:14;5.82;;;1.88;;
6852;SDS011;3465;42.144;24.722;2023-07-31T00:10:39;4.53;;;2.10;;
6852;SDS011;3465;42.144;24.722;2023-07-31T00:13:04;2.90;;;1.70;;
6852;SDS011;3465;42.144;24.722;2023-07-31T00:15:30;3.90;;;1.80;;
6852;SDS011;3465;42.144;24.722;2023-07-31T00:17:55;2.17;;;1.70;;
6852;SDS011;3465;42.144;24.722;2023-07-31T00:20:21;5.03;;;1.85;;
6852;SDS011;3465;42.144;24.722;2023-07-31T00:22:46;4.25;;;1.70;;
6852;SDS011;3465;42.144;24.722;2023-07-31T00:25:12;4.90;;;1.85;;
6852;SDS011;3465;42.144;24.722;2023-07-31T00:27:37;2.72;;;1.60;;
6852;SDS011;3465;42.144;24.722;2023-07-31T00:30:02;2.80;;;1.70;;
6852;SDS011;3465;42.144;24.722;2023-07-31T00:32:28;2.20;;;1.55;;
6852;SDS011;3465;42.144;24.722;2023-07-31T00:34:53;2.22;;;1.60;;
6852;SDS011;3465;42.144;24.722;2023-07-31T00:37:19;3.05;;;1.80;;
6852;SDS011;3465;42.144;24.722;2023-07-31T00:39:44;3.25;;;1.90;;
6852;SDS011;3465;42.144;24.722;2023-07-31T00:42:10;4.35;;;1.90;;
6852;SDS011;3465;42.144;24.722;2023-07-31T00:44:35;3.42;;;1.70;;
6852;SDS011;3465;42.144;24.722;2023-07-31T00:47:00;4.88;;;1.90;;
6852;SDS011;3465;42.144;24.722;2023-07-31T00:49:26;3.25;;;1.85;;
6852;SDS011;3465;42.144;24.722;2023-07-31T00:51:52;18.52;;;3.45;;
6852;SDS011;3465;42.144;24.722;2023-07-31T00:54:18;8.57;;;2.80;;
6852;SDS011;3465;42.144;24.722;2023-07-31T00:56:44;7.28;;;2.30;;
6852;SDS011;3465;42.144;24.722;2023-07-31T00:59:11;4.72;;;2.17;;
6852;SDS011;3465;42.144;24.722;2023-07-31T01:01:36;2.13;;;1.63;;
6852;SDS011;3465;42.144;24.722;2023-07-31T01:04:02;3.17;;;1.80;;
6852;SDS011;3465;42.144;24.722;2023-07-31T01:09:06;4.15;;;1.80;;
6852;SDS011;3465;42.144;24.722;2023-07-31T01:12:03;3.22;;;1.92;;
6852;SDS011;3465;42.144;24.722;2023-07-31T01:14:31;2.95;;;2.08;;
6852;SDS011;3465;42.144;24.722;2023-07-31T01:16:57;3.45;;;1.90;;
6852;SDS011;3465;42.144;24.722;2023-07-31T01:19:23;4.10;;;1.90;;
6852;SDS011;3465;42.144;24.722;2023-07-31T01:25:05;4.55;;;2.55;;
6852;SDS011;3465;42.144;24.722;2023-07-31T01:27:31;3.13;;;2.50;;
6852;SDS011;3465;42.144;24.722;2023-07-31T01:30:16;9.10;;;2.50;;
6852;SDS011;3465;42.144;24.722;2023-07-31T01:32:47;3.35;;;2.40;;
6852;SDS011;3465;42.144;24.722;2023-07-31T01:35:14;6.40;;;2.70;;
6852;SDS011;3465;42.144;24.722;2023-07-31T01:37:40;3.80;;;2.60;;
6852;SDS011;3465;42.144;24.722;2023-07-31T01:40:06;4.93;;;3.00;;
6852;SDS011;3465;42.144;24.722;2023-07-31T01:42:32;7.00;;;3.47;;
6852;SDS011;3465;42.144;24.722;2023-07-31T01:44:57;10.02;;;4.88;;
6852;SDS011;3465;42.144;24.722;2023-07-31T01:47:23;27.85;;;8.70;;
6852;SDS011;3465;42.144;24.722;2023-07-31T01:49:48;17.02;;;8.43;;
6852;SDS011;3465;42.144;24.722;2023-07-31T01:52:14;16.75;;;8.82;;
6852;SDS011;3465;42.144;24.722;2023-07-31T01:54:39;18.35;;;9.73;;
6852;SDS011;3465;42.144;24.722;2023-07-31T01:57:05;24.80;;;11.73;;
6852;SDS011;3465;42.144;24.722;2023-07-31T01:59:31;18.88;;;10.15;;
6852;SDS011;3465;42.144;24.722;2023-07-31T02:01:56;16.23;;;8.70;;
6852;SDS011;3465;42.144;24.722;2023-07-31T02:04:21;18.60;;;8.98;;
6852;SDS011;3465;42.144;24.722;2023-07-31T02:06:47;12.20;;;7.57;;
6852;SDS011;3465;42.144;24.722;2023-07-31T02:09:12;15.52;;;7.43;;
6852;SDS011;3465;42.144;24.722;2023-07-31T02:11:38;11.20;;;5.90;;
6852;SDS011;3465;42.144;24.722;2023-07-31T02:14:03;11.68;;;5.88;;
6852;SDS011;3465;42.144;24.722;2023-07-31T02:16:28;15.63;;;7.05;;
6852;SDS011;3465;42.144;24.722;2023-07-31T02:18:54;9.45;;;5.72;;
6852;SDS011;3465;42.144;24.722;2023-07-31T02:21:19;7.82;;;4.50;;
6852;SDS011;3465;42.144;24.722;2023-07-31T02:23:44;6.07;;;3.67;;
6852;SDS011;3465;42.144;24.722;2023-07-31T02:26:10;10.15;;;3.60;;
6852;SDS011;3465;42.144;24.722;2023-07-31T02:28:35;9.98;;;3.70;;
6852;SDS011;3465;42.144;24.722;2023-07-31T02:31:01;9.43;;;3.42;;
6852;SDS011;3465;42.144;24.722;2023-07-31T02:33:26;7.30;;;2.92;;
6852;SDS011;3465;42.144;24.722;2023-07-31T02:35:52;3.65;;;2.78;;
6852;SDS011;3465;42.144;24.722;2023-07-31T02:38:17;6.07;;;3.20;;
6852;SDS011;3465;42.144;24.722;2023-07-31T02:40:42;8.32;;;3.10;;
6852;SDS011;3465;42.144;24.722;2023-07-31T02:43:08;5.80;;;3.35;;
6852;SDS011;3465;42.144;24.722;2023-07-31T02:45:34;6.18;;;3.20;;
6852;SDS011;3465;42.144;24.722;2023-07-31T02:47:59;12.63;;;3.25;;
6852;SDS011;3465;42.144;24.722;2023-07-31T02:50:25;8.23;;;3.70;;
6852;SDS011;3465;42.144;24.722;2023-07-31T02:52:50;4.28;;;3.47;;
6852;SDS011;3465;42.144;24.722;2023-07-31T02:55:16;7.28;;;4.10;;
6852;SDS011;3465;42.144;24.722;2023-07-31T02:57:41;8.38;;;4.07;;
6852;SDS011;3465;42.144;24.722;2023-07-31T03:00:07;9.63;;;3.72;;
6852;SDS011;3465;42.144;24.722;2023-07-31T03:02:33;10.10;;;3.88;;
6852;SDS011;3465;42.144;24.722;2023-07-31T03:04:59;11.25;;;4.15;;
6852;SDS011;3465;42.144;24.722;2023-07-31T03:07:24;5.72;;;3.65;;
6852;SDS011;3465;42.144;24.722;2023-07-31T03:09:50;9.77;;;3.78;;
6852;SDS011;3465;42.144;24.722;2023-07-31T03:12:15;15.43;;;4.50;;
6852;SDS011;3465;42.144;24.722;2023-07-31T03:14:40;12.68;;;4.18;;
6852;SDS011;3465;42.144;24.722;2023-07-31T03:17:06;12.18;;;4.95;;
6852;SDS011;3465;42.144;24.722;2023-07-31T03:19:32;8.52;;;4.90;;
6852;SDS011;3465;42.144;24.722;2023-07-31T03:22:01;9.85;;;5.10;;
6852;SDS011;3465;42.144;24.722;2023-07-31T03:24:27;9.43;;;5.13;;
6852;SDS011;3465;42.144;24.722;2023-07-31T03:26:53;11.63;;;5.45;;
6852;SDS011;3465;42.144;24.722;2023-07-31T03:29:19;10.65;;;6.38;;
6852;SDS011;3465;42.144;24.722;2023-07-31T03:31:44;9.93;;;6.35;;
6852;SDS011;3465;42.144;24.722;2023-07-31T03:34:09;11.88;;;6.78;;
6852;SDS011;3465;42.144;24.722;2023-07-31T03:36:35;13.27;;;6.90;;
6852;SDS011;3465;42.144;24.722;2023-07-31T03:39:00;12.45;;;6.75;;
6852;SDS011;3465;42.144;24.722;2023-07-31T03:41:26;11.55;;;6.80;;
6852;SDS011;3465;42.144;24.722;2023-07-31T03:43:51;11.30;;;6.78;;
6852;SDS011;3465;42.144;24.722;2023-07-31T03:46:17;11.32;;;6.95;;
6852;SDS011;3465;42.144;24.722;2023-07-31T03:48:42;10.57;;;6.50;;
6852;SDS011;3465;42.144;24.722;2023-07-31T03:51:08;11.73;;;6.53;;
6852;SDS011;3465;42.144;24.722;2023-07-31T03:53:33;11.10;;;6.65;;
6852;SDS011;3465;42.144;24.722;2023-07-31T03:55:59;11.70;;;6.80;;
6852;SDS011;3465;42.144;24.722;2023-07-31T03:58:24;8.23;;;5.53;;
6852;SDS011;3465;42.144;24.722;2023-07-31T04:00:49;8.60;;;5.43;;
6852;SDS011;3465;42.144;24.722;2023-07-31T04:03:15;9.52;;;5.68;;
6852;SDS011;3465;42.144;24.722;2023-07-31T04:05:40;9.38;;;5.90;;
6852;SDS011;3465;42.144;24.722;2023-07-31T04:08:06;10.52;;;5.72;;
6852;SDS011;3465;42.144;24.722;2023-07-31T04:10:31;12.93;;;6.78;;
6852;SDS011;3465;42.144;24.722;2023-07-31T04:12:58;10.15;;;5.82;;
6852;SDS011;3465;42.144;24.722;2023-07-31T04:15:24;9.13;;;5.50;;
6852;SDS011;3465;42.144;24.722;2023-07-31T04:17:49;7.28;;;5.22;;
6852;SDS011;3465;42.144;24.722;2023-07-31T04:20:15;9.57;;;5.47;;
6852;SDS011;3465;42.144;24.722;2023-07-31T04:22:40;8.27;;;5.30;;
6852;SDS011;3465;42.144;24.722;2023-07-31T04:25:06;6.88;;;5.18;;
6852;SDS011;3465;42.144;24.722;2023-07-31T04:27:31;7.65;;;5.28;;
6852;SDS011;3465;42.144;24.722;2023-07-31T04:29:57;8.05;;;5.15;;
6852;SDS011;3465;42.144;24.722;2023-07-31T04:32:22;6.85;;;4.97;;
6852;SDS011;3465;42.144;24.722;2023-07-31T04:34:48;7.22;;;5.20;;
6852;SDS011;3465;42.144;24.722;2023-07-31T04:37:13;6.93;;;5.15;;
6852;SDS011;3465;42.144;24.722;2023-07-31T04:39:39;10.82;;;6.00;;
6852;SDS011;3465;42.144;24.722;2023-07-31T04:42:04;7.90;;;5.68;;
6852;SDS011;3465;42.144;24.722;2023-07-31T04:44:30;8.85;;;5.03;;
6852;SDS011;3465;42.144;24.722;2023-07-31T04:46:55;6.20;;;4.22;;
6852;SDS011;3465;42.144;24.722;2023-07-31T04:49:20;10.02;;;5.32;;
6852;SDS011;3465;42.144;24.722;2023-07-31T04:51:47;7.63;;;4.90;;
6852;SDS011;3465;42.144;24.722;2023-07-31T04:54:12;10.45;;;5.13;;
6852;SDS011;3465;42.144;24.722;2023-07-31T04:56:40;5.55;;;4.78;;
6852;SDS011;3465;42.144;24.722;2023-07-31T04:59:06;8.95;;;4.88;;
6852;SDS011;3465;42.144;24.722;2023-07-31T05:01:32;7.38;;;5.07;;
6852;SDS011;3465;42.144;24.722;2023-07-31T05:03:57;8.25;;;5.45;;
6852;SDS011;3465;42.144;24.722;2023-07-31T05:06:23;6.10;;;4.95;;
6852;SDS011;3465;42.144;24.722;2023-07-31T05:08:48;6.85;;;5.25;;
6852;SDS011;3465;42.144;24.722;2023-07-31T05:11:13;8.60;;;5.30;;
6852;SDS011;3465;42.144;24.722;2023-07-31T05:13:39;8.38;;;5.50;;
6852;SDS011;3465;42.144;24.722;2023-07-31T05:16:04;10.65;;;5.40;;
6852;SDS011;3465;42.144;24.722;2023-07-31T05:18:30;11.02;;;5.63;;
6852;SDS011;3465;42.144;24.722;2023-07-31T05:20:55;10.95;;;5.70;;
6852;SDS011;3465;42.144;24.722;2023-07-31T05:23:20;11.18;;;5.03;;
6852;SDS011;3465;42.144;24.722;2023-07-31T05:25:46;8.07;;;5.20;;
6852;SDS011;3465;42.144;24.722;2023-07-31T05:28:12;19.58;;;5.78;;
6852;SDS011;3465;42.144;24.722;2023-07-31T05:30:37;17.60;;;6.47;;
6852;SDS011;3465;42.144;24.722;2023-07-31T05:33:03;11.85;;;4.75;;
6852;SDS011;3465;42.144;24.722;2023-07-31T05:35:28;11.02;;;4.80;;
6852;SDS011;3465;42.144;24.722;2023-07-31T05:37:54;11.23;;;5.10;;
6852;SDS011;3465;42.144;24.722;2023-07-31T05:40:19;11.35;;;5.25;;
6852;SDS011;3465;42.144;24.722;2023-07-31T05:42:44;27.88;;;5.97;;
6852;SDS011;3465;42.144;24.722;2023-07-31T05:45:10;25.65;;;6.45;;
6852;SDS011;3465;42.144;24.722;2023-07-31T05:47:35;40.45;;;7.13;;
6852;SDS011;3465;42.144;24.722;2023-07-31T05:50:01;20.42;;;5.25;;
6852;SDS011;3465;42.144;24.722;2023-07-31T05:52:26;23.60;;;5.57;;
6852;SDS011;3465;42.144;24.722;2023-07-31T05:54:53;17.60;;;5.40;;
6852;SDS011;3465;42.144;24.722;2023-07-31T05:57:19;18.90;;;5.78;;
6852;SDS011;3465;42.144;24.722;2023-07-31T05:59:45;14.00;;;5.15;;
6852;SDS011;3465;42.144;24.722;2023-07-31T06:02:10;13.13;;;5.78;;
6852;SDS011;3465;42.144;24.722;2023-07-31T06:04:36;9.35;;;5.70;;
6852;SDS011;3465;42.144;24.722;2023-07-31T06:07:01;7.88;;;5.88;;
6852;SDS011;3465;42.144;24.722;2023-07-31T06:09:27;18.05;;;6.32;;
6852;SDS011;3465;42.144;24.722;2023-07-31T06:11:53;9.77;;;6.32;;
6852;SDS011;3465;42.144;24.722;2023-07-31T06:14:18;9.77;;;6.70;;
6852;SDS011;3465;42.144;24.722;2023-07-31T06:16:44;8.60;;;6.45;;
6852;SDS011;3465;42.144;24.722;2023-07-31T06:19:09;13.20;;;6.55;;
6852;SDS011;3465;42.144;24.722;2023-07-31T06:21:35;14.27;;;6.80;;
6852;SDS011;3465;42.144;24.722;2023-07-31T06:24:02;14.38;;;7.05;;
6852;SDS011;3465;42.144;24.722;2023-07-31T06:26:28;12.23;;;7.28;;
6852;SDS011;3465;42.144;24.722;2023-07-31T06:28:54;10.75;;;6.80;;
6852;SDS011;3465;42.144;24.722;2023-07-31T06:31:19;21.08;;;8.55;;
6852;SDS011;3465;42.144;24.722;2023-07-31T06:33:48;9.85;;;7.22;;
6852;SDS011;3465;42.144;24.722;2023-07-31T06:36:16;12.00;;;7.15;;
6852;SDS011;3465;42.144;24.722;2023-07-31T06:38:42;10.90;;;7.47;;
6852;SDS011;3465;42.144;24.722;2023-07-31T06:41:08;8.82;;;7.05;;
6852;SDS011;3465;42.144;24.722;2023-07-31T06:43:34;11.43;;;7.78;;
6852;SDS011;3465;42.144;24.722;2023-07-31T06:46:04;18.95;;;8.10;;
6852;SDS011;3465;42.144;24.722;2023-07-31T06:48:31;14.20;;;7.40;;
6852;SDS011;3465;42.144;24.722;2023-07-31T06:50:56;19.10;;;8.60;;
6852;SDS011;3465;42.144;24.722;2023-07-31T06:53:21;12.52;;;7.53;;
6852;SDS011;3465;42.144;24.722;2023-07-31T06:55:47;9.95;;;7.53;;
6852;SDS011;3465;42.144;24.722;2023-07-31T06:58:13;13.27;;;7.75;;
6852;SDS011;3465;42.144;24.722;2023-07-31T07:00:38;10.25;;;6.78;;
6852;SDS011;3465;42.144;24.722;2023-07-31T07:03:04;9.35;;;6.65;;
6852;SDS011;3465;42.144;24.722;2023-07-31T07:05:29;11.73;;;6.97;;
6852;SDS011;3465;42.144;24.722;2023-07-31T07:07:54;11.05;;;7.30;;
6852;SDS011;3465;42.144;24.722;2023-07-31T07:10:20;9.38;;;6.97;;
6852;SDS011;3465;42.144;24.722;2023-07-31T07:12:45;14.20;;;7.80;;
6852;SDS011;3465;42.144;24.722;2023-07-31T07:15:11;9.13;;;7.55;;
6852;SDS011;3465;42.144;24.722;2023-07-31T07:17:36;8.82;;;7.30;;
6852;SDS011;3465;42.144;24.722;2023-07-31T07:20:02;10.85;;;8.25;;
6852;SDS011;3465;42.144;24.722;2023-07-31T07:22:28;13.05;;;8.35;;
6852;SDS011;3465;42.144;24.722;2023-07-31T07:24:54;9.35;;;8.20;;
6852;SDS011;3465;42.144;24.722;2023-07-31T07:27:19;12.50;;;8.13;;
6852;SDS011;3465;42.144;24.722;2023-07-31T07:29:45;9.90;;;8.40;;
6852;SDS011;3465;42.144;24.722;2023-07-31T07:32:11;9.55;;;7.82;;
6852;SDS011;3465;42.144;24.722;2023-07-31T07:34:37;10.07;;;7.63;;
6852;SDS011;3465;42.144;24.722;2023-07-31T07:37:03;10.55;;;8.50;;
6852;SDS011;3465;42.144;24.722;2023-07-31T07:39:28;12.75;;;8.32;;
6852;SDS011;3465;42.144;24.722;2023-07-31T07:41:54;8.48;;;7.53;;
6852;SDS011;3465;42.144;24.722;2023-07-31T07:44:19;8.90;;;7.88;;
6852;SDS011;3465;42.144;24.722;2023-07-31T07:46:45;8.65;;;7.75;;
6852;SDS011;3465;42.144;24.722;2023-07-31T07:49:10;10.07;;;7.72;;
6852;SDS011;3465;42.144;24.722;2023-07-31T07:51:35;10.13;;;8.55;;
6852;SDS011;3465;42.144;24.722;2023-07-31T07:54:01;15.10;;;8.75;;
6852;SDS011;3465;42.144;24.722;2023-07-31T07:56:27;10.90;;;8.52;;
6852;SDS011;3465;42.144;24.722;2023-07-31T07:58:53;12.93;;;8.80;;
6852;SDS011;3465;42.144;24.722;2023-07-31T08:01:19;11.05;;;8.65;;
6852;SDS011;3465;42.144;24.722;2023-07-31T08:03:44;8.60;;;7.75;;
6852;SDS011;3465;42.144;24.722;2023-07-31T08:06:10;10.07;;;7.78;;
6852;SDS011;3465;42.144;24.722;2023-07-31T08:08:36;7.82;;;7.03;;
6852;SDS011;3465;42.144;24.722;2023-07-31T08:11:02;7.47;;;6.78;;
6852;SDS011;3465;42.144;24.722;2023-07-31T08:13:27;9.93;;;7.43;;
6852;SDS011;3465;42.144;24.722;2023-07-31T08:15:53;7.57;;;6.78;;
6852;SDS011;3465;42.144;24.722;2023-07-31T08:18:19;10.15;;;6.70;;
6852;SDS011;3465;42.144;24.722;2023-07-31T08:20:45;11.63;;;6.30;;
6852;SDS011;3465;42.144;24.722;2023-07-31T08:23:10;7.35;;;6.40;;
6852;SDS011;3465;42.144;24.722;2023-07-31T08:25:36;8.02;;;7.22;;
6852;SDS011;3465;42.144;24.722;2023-07-31T08:28:02;9.90;;;8.13;;
6852;SDS011;3465;42.144;24.722;2023-07-31T08:30:28;12.10;;;8.63;;
6852;SDS011;3465;42.144;24.722;2023-07-31T08:32:53;10.20;;;8.75;;
6852;SDS011;3465;42.144;24.722;2023-07-31T08:35:19;11.55;;;9.00;;
6852;SDS011;3465;42.144;24.722;2023-07-31T08:37:44;9.93;;;8.93;;
6852;SDS011;3465;42.144;24.722;2023-07-31T08:40:09;11.90;;;7.85;;
6852;SDS011;3465;42.144;24.722;2023-07-31T08:42:43;11.57;;;8.88;;
6852;SDS011;3465;42.144;24.722;2023-07-31T08:45:09;10.57;;;8.18;;
6852;SDS011;3465;42.144;24.722;2023-07-31T08:47:46;8.82;;;7.93;;
6852;SDS011;3465;42.144;24.722;2023-07-31T08:50:16;14.95;;;9.00;;
6852;SDS011;3465;42.144;24.722;2023-07-31T08:52:44;14.05;;;9.40;;
6852;SDS011;3465;42.144;24.722;2023-07-31T08:55:10;11.48;;;8.35;;
6852;SDS011;3465;42.144;24.722;2023-07-31T08:57:37;10.10;;;8.20;;
6852;SDS011;3465;42.144;24.722;2023-07-31T09:00:06;9.63;;;8.25;;
6852;SDS011;3465;42.144;24.722;2023-07-31T09:05:19;9.05;;;7.25;;
6852;SDS011;3465;42.144;24.722;2023-07-31T09:07:47;9.63;;;7.90;;
6852;SDS011;3465;42.144;24.722;2023-07-31T09:10:14;11.50;;;7.72;;
6852;SDS011;3465;42.144;24.722;2023-07-31T09:12:39;8.65;;;7.70;;
6852;SDS011;3465;42.144;24.722;2023-07-31T09:15:05;9.77;;;8.30;;
6852;SDS011;3465;42.144;24.722;2023-07-31T09:17:32;11.68;;;7.72;;
6852;SDS011;3465;42.144;24.722;2023-07-31T09:20:12;10.27;;;7.90;;
6852;SDS011;3465;42.144;24.722;2023-07-31T09:22:45;10.27;;;7.72;;
6852;SDS011;3465;42.144;24.722;2023-07-31T09:27:50;11.35;;;8.02;;
6852;SDS011;3465;42.144;24.722;2023-07-31T09:30:18;9.05;;;7.85;;
6852;SDS011;3465;42.144;24.722;2023-07-31T09:32:44;9.30;;;8.07;;
6852;SDS011;3465;42.144;24.722;2023-07-31T09:35:18;8.80;;;7.43;;
6852;SDS011;3465;42.144;24.722;2023-07-31T09:37:57;9.43;;;7.40;;
6852;SDS011;3465;42.144;24.722;2023-07-31T09:40:31;9.93;;;8.15;;
6852;SDS011;3465;42.144;24.722;2023-07-31T09:42:59;11.10;;;7.10;;
6852;SDS011;3465;42.144;24.722;2023-07-31T09:45:26;8.02;;;6.63;;
6852;SDS011;3465;42.144;24.722;2023-07-31T09:47:53;6.57;;;5.88;;
6852;SDS011;3465;42.144;24.722;2023-07-31T09:50:20;9.00;;;6.82;;
6852;SDS011;3465;42.144;24.722;2023-07-31T09:52:47;8.93;;;6.60;;
6852;SDS011;3465;42.144;24.722;2023-07-31T09:55:12;6.70;;;6.10;;
6852;SDS011;3465;42.144;24.722;2023-07-31T09:57:41;17.20;;;7.07;;
6852;SDS011;3465;42.144;24.722;2023-07-31T10:00:12;17.55;;;7.90;;
6852;SDS011;3465;42.144;24.722;2023-07-31T10:02:38;10.85;;;7.32;;
6852;SDS011;3465;42.144;24.722;2023-07-31T10:05:05;9.80;;;7.50;;
6852;SDS011;3465;42.144;24.722;2023-07-31T10:07:33;7.30;;;6.60;;
6852;SDS011;3465;42.144;24.722;2023-07-31T10:10:03;7.80;;;7.00;;
6852;SDS011;3465;42.144;24.722;2023-07-31T10:12:31;11.70;;;7.82;;
6852;SDS011;3465;42.144;24.722;2023-07-31T10:14:58;8.70;;;7.50;;
6852;SDS011;3465;42.144;24.722;2023-07-31T10:17:24;10.10;;;7.40;;
6852;SDS011;3465;42.144;24.722;2023-07-31T10:19:51;13.70;;;7.45;;
6852;SDS011;3465;42.144;24.722;2023-07-31T10:22:19;7.93;;;6.97;;
6852;SDS011;3465;42.144;24.722;2023-07-31T10:24:45;12.07;;;6.93;;
6852;SDS011;3465;42.144;24.722;2023-07-31T10:27:11;8.90;;;6.45;;
6852;SDS011;3465;42.144;24.722;2023-07-31T10:29:38;7.68;;;6.90;;
6852;SDS011;3465;42.144;24.722;2023-07-31T10:32:04;10.45;;;6.95;;
6852;SDS011;3465;42.144;24.722;2023-07-31T10:34:36;8.73;;;7.05;;
6852;SDS011;3465;42.144;24.722;2023-07-31T10:40:06;6.68;;;5.85;;
6852;SDS011;3465;42.144;24.722;2023-07-31T10:42:38;9.32;;;6.65;;
6852;SDS011;3465;42.144;24.722;2023-07-31T10:45:14;8.73;;;7.07;;
6852;SDS011;3465;42.144;24.722;2023-07-31T10:50:25;6.90;;;6.20;;
6852;SDS011;3465;42.144;24.722;2023-07-31T10:52:52;8.07;;;5.78;;
6852;SDS011;3465;42.144;24.722;2023-07-31T10:55:40;9.95;;;5.72;;
6852;SDS011;3465;42.144;24.722;2023-07-31T10:58:07;6.85;;;5.18;;
6852;SDS011;3465;42.144;24.722;2023-07-31T11:00:42;8.38;;;5.07;;
6852;SDS011;3465;42.144;24.722;2023-07-31T11:05:48;5.82;;;5.07;;
6852;SDS011;3465;42.144;24.722;2023-07-31T11:10:51;6.05;;;4.82;;
6852;SDS011;3465;42.144;24.722;2023-07-31T11:13:31;5.57;;;5.05;;
6852;SDS011;3465;42.144;24.722;2023-07-31T11:16:17;6.15;;;4.82;;
6852;SDS011;3465;42.144;24.722;2023-07-31T11:18:45;10.75;;;6.00;;
6852;SDS011;3465;42.144;24.722;2023-07-31T11:21:13;11.00;;;5.20;;
6852;SDS011;3465;42.144;24.722;2023-07-31T11:23:47;11.60;;;5.43;;
6852;SDS011;3465;42.144;24.722;2023-07-31T11:26:13;10.13;;;5.65;;
6852;SDS011;3465;42.144;24.722;2023-07-31T11:28:39;8.38;;;5.45;;
6852;SDS011;3465;42.144;24.722;2023-07-31T11:31:08;7.38;;;5.25;;
6852;SDS011;3465;42.144;24.722;2023-07-31T11:33:34;6.47;;;5.32;;
6852;SDS011;3465;42.144;24.722;2023-07-31T11:35:59;5.97;;;4.90;;
6852;SDS011;3465;42.144;24.722;2023-07-31T11:38:25;6.28;;;5.45;;
6852;SDS011;3465;42.144;24.722;2023-07-31T11:40:53;6.43;;;5.50;;
6852;SDS011;3465;42.144;24.722;2023-07-31T11:43:20;7.65;;;5.43;;
6852;SDS011;3465;42.144;24.722;2023-07-31T11:45:54;7.60;;;5.30;;
6852;SDS011;3465;42.144;24.722;2023-07-31T11:50:52;6.18;;;5.28;;
6852;SDS011;3465;42.144;24.722;2023-07-31T11:53:20;6.55;;;4.95;;
6852;SDS011;3465;42.144;24.722;2023-07-31T11:55:59;6.97;;;5.15;;
6852;SDS011;3465;42.144;24.722;2023-07-31T11:58:26;7.15;;;5.93;;
6852;SDS011;3465;42.144;24.722;2023-07-31T12:00:54;8.25;;;5.60;;
6852;SDS011;3465;42.144;24.722;2023-07-31T12:03:20;8.23;;;5.65;;
6852;SDS011;3465;42.144;24.722;2023-07-31T12:05:47;8.68;;;6.60;;
6852;SDS011;3465;42.144;24.722;2023-07-31T12:08:13;7.65;;;6.55;;
6852;SDS011;3465;42.144;24.722;2023-07-31T12:10:39;7.82;;;6.50;;
6852;SDS011;3465;42.144;24.722;2023-07-31T12:13:09;6.97;;;6.28;;
6852;SDS011;3465;42.144;24.722;2023-07-31T12:15:40;7.60;;;6.38;;
6852;SDS011;3465;42.144;24.722;2023-07-31T12:18:08;8.23;;;5.30;;
6852;SDS011;3465;42.144;24.722;2023-07-31T12:20:45;5.90;;;5.25;;
6852;SDS011;3465;42.144;24.722;2023-07-31T12:23:13;7.82;;;6.10;;
6852;SDS011;3465;42.144;24.722;2023-07-31T12:25:40;8.77;;;5.90;;
6852;SDS011;3465;42.144;24.722;2023-07-31T12:28:06;6.95;;;6.25;;
6852;SDS011;3465;42.144;24.722;2023-07-31T12:30:36;7.20;;;5.38;;
6852;SDS011;3465;42.144;24.722;2023-07-31T12:33:05;7.25;;;5.22;;
6852;SDS011;3465;42.144;24.722;2023-07-31T12:35:40;8.98;;;5.82;;
6852;SDS011;3465;42.144;24.722;2023-07-31T12:38:08;5.43;;;4.90;;
6852;SDS011;3465;42.144;24.722;2023-07-31T12:40:35;5.35;;;4.85;;
6852;SDS011;3465;42.144;24.722;2023-07-31T12:43:03;7.22;;;4.47;;
6852;SDS011;3465;42.144;24.722;2023-07-31T12:45:29;4.20;;;3.80;;
6852;SDS011;3465;42.144;24.722;2023-07-31T12:47:56;5.07;;;3.70;;
6852;SDS011;3465;42.144;24.722;2023-07-31T12:50:21;6.32;;;4.43;;
6852;SDS011;3465;42.144;24.722;2023-07-31T12:52:48;4.88;;;4.22;;
6852;SDS011;3465;42.144;24.722;2023-07-31T12:55:14;6.35;;;4.00;;
6852;SDS011;3465;42.144;24.722;2023-07-31T12:57:39;6.90;;;4.57;;
6852;SDS011;3465;42.144;24.722;2023-07-31T13:00:07;6.57;;;4.30;;
6852;SDS011;3465;42.144;24.722;2023-07-31T13:02:33;5.40;;;4.00;;
6852;SDS011;3465;42.144;24.722;2023-07-31T13:04:58;5.57;;;4.70;;
6852;SDS011;3465;42.144;24.722;2023-07-31T13:07:23;5.60;;;4.13;;
6852;SDS011;3465;42.144;24.722;2023-07-31T13:09:50;5.28;;;4.50;;
6852;SDS011;3465;42.144;24.722;2023-07-31T13:12:15;6.78;;;4.38;;
6852;SDS011;3465;42.144;24.722;2023-07-31T13:14:41;5.43;;;4.20;;
6852;SDS011;3465;42.144;24.722;2023-07-31T13:17:06;7.00;;;4.40;;
6852;SDS011;3465;42.144;24.722;2023-07-31T13:19:32;5.80;;;4.30;;
6852;SDS011;3465;42.144;24.722;2023-07-31T13:21:57;4.75;;;4.25;;
6852;SDS011;3465;42.144;24.722;2023-07-31T13:24:23;4.65;;;3.95;;
6852;SDS011;3465;42.144;24.722;2023-07-31T13:26:48;8.68;;;4.13;;
6852;SDS011;3465;42.144;24.722;2023-07-31T13:29:14;6.00;;;4.53;;
6852;SDS011;3465;42.144;24.722;2023-07-31T13:31:39;5.38;;;4.82;;
6852;SDS011;3465;42.144;24.722;2023-07-31T13:34:04;7.00;;;5.68;;
6852;SDS011;3465;42.144;24.722;2023-07-31T13:36:30;6.38;;;5.15;;
6852;SDS011;3465;42.144;24.722;2023-07-31T13:38:55;7.88;;;5.45;;
6852;SDS011;3465;42.144;24.722;2023-07-31T13:41:21;9.73;;;5.55;;
6852;SDS011;3465;42.144;24.722;2023-07-31T13:43:47;6.10;;;5.50;;
6852;SDS011;3465;42.144;24.722;2023-07-31T13:46:12;14.77;;;5.93;;
6852;SDS011;3465;42.144;24.722;2023-07-31T13:48:38;7.05;;;5.70;;
6852;SDS011;3465;42.144;24.722;2023-07-31T13:51:03;7.57;;;5.70;;
6852;SDS011;3465;42.144;24.722;2023-07-31T13:53:28;8.02;;;5.68;;
6852;SDS011;3465;42.144;24.722;2023-07-31T13:55:54;6.45;;;5.80;;
6852;SDS011;3465;42.144;24.722;2023-07-31T13:58:20;7.47;;;5.75;;
6852;SDS011;3465;42.144;24.722;2023-07-31T14:00:45;8.75;;;6.40;;
6852;SDS011;3465;42.144;24.722;2023-07-31T14:03:11;9.15;;;5.90;;
6852;SDS011;3465;42.144;24.722;2023-07-31T14:05:36;7.30;;;5.55;;
6852;SDS011;3465;42.144;24.722;2023-07-31T14:08:02;6.15;;;5.38;;
6852;SDS011;3465;42.144;24.722;2023-07-31T14:10:28;10.00;;;6.20;;
6852;SDS011;3465;42.144;24.722;2023-07-31T14:12:53;8.57;;;5.57;;
6852;SDS011;3465;42.144;24.722;2023-07-31T14:15:18;6.88;;;5.70;;
6852;SDS011;3465;42.144;24.722;2023-07-31T14:17:44;8.45;;;5.80;;
6852;SDS011;3465;42.144;24.722;2023-07-31T14:20:10;7.15;;;5.60;;
6852;SDS011;3465;42.144;24.722;2023-07-31T14:22:36;7.22;;;5.28;;
6852;SDS011;3465;42.144;24.722;2023-07-31T14:25:02;10.68;;;5.68;;
6852;SDS011;3465;42.144;24.722;2023-07-31T14:27:28;7.75;;;5.03;;
6852;SDS011;3465;42.144;24.722;2023-07-31T14:29:54;7.28;;;5.68;;
6852;SDS011;3465;42.144;24.722;2023-07-31T14:32:19;5.95;;;5.22;;
6852;SDS011;3465;42.144;24.722;2023-07-31T14:34:46;7.00;;;5.10;;
6852;SDS011;3465;42.144;24.722;2023-07-31T14:37:11;7.38;;;5.15;;
6852;SDS011;3465;42.144;24.722;2023-07-31T14:39:36;7.78;;;5.22;;
6852;SDS011;3465;42.144;24.722;2023-07-31T14:42:02;7.65;;;4.85;;
6852;SDS011;3465;42.144;24.722;2023-07-31T14:44:27;7.60;;;5.38;;
6852;SDS011;3465;42.144;24.722;2023-07-31T14:46:53;6.85;;;5.30;;
6852;SDS011;3465;42.144;24.722;2023-07-31T14:49:18;6.05;;;5.20;;
6852;SDS011;3465;42.144;24.722;2023-07-31T14:51:43;7.45;;;5.22;;
6852;SDS011;3465;42.144;24.722;2023-07-31T14:54:09;9.18;;;5.00;;
6852;SDS011;3465;42.144;24.722;2023-07-31T14:56:34;5.72;;;5.13;;
6852;SDS011;3465;42.144;24.722;2023-07-31T14:59:00;5.18;;;4.68;;
6852;SDS011;3465;42.144;24.722;2023-07-31T15:01:25;6.05;;;4.97;;
6852;SDS011;3465;42.144;24.722;2023-07-31T15:03:51;6.55;;;5.53;;
6852;SDS011;3465;42.144;24.722;2023-07-31T15:06:16;5.60;;;5.10;;
6852;SDS011;3465;42.144;24.722;2023-07-31T15:08:41;7.80;;;5.80;;
6852;SDS011;3465;42.144;24.722;2023-07-31T15:11:07;8.60;;;6.15;;
6852;SDS011;3465;42.144;24.722;2023-07-31T15:13:32;5.80;;;5.05;;
6852;SDS011;3465;42.144;24.722;2023-07-31T15:15:58;7.10;;;5.60;;
6852;SDS011;3465;42.144;24.722;2023-07-31T15:18:24;6.05;;;5.43;;